Terminal Aerodrome Forecast
Issued by NWS Charleston, WV

Home | Current Version | Previous Version | Text Only | Print | Product List | Glossary On
Versions: 1 2 3 4 5 6 7 8 9 10 11 12 13 14 15 16
000
FTUS41 KRLX 261800 AAA
TAFEKN
TAF AMD
KEKN 261842Z 2619/2718 24005KT P6SM SCT250
     FM270200 00000KT P6SM SCT250
     FM271600 19005KT P6SM SCT120=

USA.gov is the U.S. government's official web portal to all federal, state and local government web resources and services.